createdAt,value
2022-09-15T00:00:07.483Z,17.20
2022-09-15T00:02:34.168Z,17.10
2022-09-15T00:05:00.892Z,17.10
2022-09-15T00:07:27.611Z,17.20
2022-09-15T00:09:54.157Z,17.20
2022-09-15T00:12:22.897Z,17.20
2022-09-15T00:14:51.994Z,17.20
2022-09-15T00:17:18.496Z,17.30
2022-09-15T00:19:45.447Z,17.30
2022-09-15T00:22:11.982Z,17.30
2022-09-15T00:24:38.741Z,17.30
2022-09-15T00:27:07.860Z,17.30
2022-09-15T00:29:35.772Z,17.30
2022-09-15T00:32:02.413Z,17.30
2022-09-15T00:34:31.352Z,17.30
2022-09-15T00:36:57.906Z,17.30
2022-09-15T00:39:24.437Z,17.30
2022-09-15T00:41:53.347Z,17.30
2022-09-15T00:44:19.852Z,17.30
2022-09-15T00:46:58.899Z,17.30
2022-09-15T00:49:36.465Z,17.30
2022-09-15T00:52:07.594Z,17.30
2022-09-15T00:54:52.812Z,17.30
2022-09-15T00:57:22.015Z,17.30
2022-09-15T00:59:49.051Z,17.30
2022-09-15T01:02:18.328Z,17.30
2022-09-15T01:04:44.951Z,17.20
2022-09-15T01:07:15.751Z,17.10
2022-09-15T01:09:49.395Z,17.10
2022-09-15T01:12:16.147Z,17.10
2022-09-15T01:14:42.688Z,17.10
2022-09-15T01:17:27.562Z,17.00
2022-09-15T01:20:12.567Z,17.10
2022-09-15T01:22:57.846Z,17.00
2022-09-15T01:25:55.801Z,17.00
2022-09-15T01:28:43.375Z,17.00
2022-09-15T01:31:23.556Z,17.00
2022-09-15T01:33:50.075Z,16.90
2022-09-15T01:36:19.012Z,16.90
2022-09-15T01:39:00.815Z,16.80
2022-09-15T01:41:32.003Z,16.80
2022-09-15T01:43:58.481Z,16.80
2022-09-15T01:46:26.269Z,16.80
2022-09-15T01:48:53.954Z,16.80
2022-09-15T01:51:21.481Z,16.80
2022-09-15T01:53:48.514Z,16.80
2022-09-15T01:56:15.060Z,16.70
2022-09-15T01:58:41.866Z,16.60
2022-09-15T02:01:08.474Z,16.60
2022-09-15T02:03:44.597Z,16.50
2022-09-15T02:06:15.694Z,16.30
2022-09-15T02:08:52.326Z,16.20
2022-09-15T02:11:20.649Z,16.20
2022-09-15T02:13:59.793Z,16.10
2022-09-15T02:16:29.833Z,16.10
2022-09-15T02:19:02.777Z,16.10
2022-09-15T02:21:46.833Z,16.20
2022-09-15T02:24:20.774Z,16.20
2022-09-15T02:26:48.806Z,16.20
2022-09-15T02:29:17.153Z,16.20
2022-09-15T02:31:45.227Z,16.20
2022-09-15T02:34:17.811Z,16.20
2022-09-15T02:36:44.504Z,16.30
2022-09-15T02:39:13.788Z,16.30
2022-09-15T02:41:40.566Z,16.40
2022-09-15T02:44:10.294Z,16.40
2022-09-15T02:46:36.865Z,16.40
2022-09-15T02:49:03.466Z,16.40
2022-09-15T02:51:30.974Z,16.40
2022-09-15T02:53:57.635Z,16.40
2022-09-15T02:56:26.354Z,16.50
2022-09-15T02:58:52.912Z,16.50
2022-09-15T03:01:19.665Z,16.50
2022-09-15T03:03:48.607Z,16.50
2022-09-15T03:06:17.955Z,16.50
2022-09-15T03:08:48.585Z,16.50
2022-09-15T03:11:15.409Z,16.50
2022-09-15T03:13:44.099Z,16.50
2022-09-15T03:16:14.889Z,16.50
2022-09-15T03:18:41.809Z,16.50
2022-09-15T03:21:11.693Z,16.50
2022-09-15T03:23:38.233Z,16.50
2022-09-15T03:26:05.688Z,16.50
2022-09-15T03:28:32.494Z,16.50
2022-09-15T03:30:59.315Z,16.60
2022-09-15T03:33:25.905Z,16.50
2022-09-15T03:35:52.698Z,16.50
2022-09-15T03:38:19.893Z,16.50
2022-09-15T03:41:00.117Z,16.50
2022-09-15T03:43:29.577Z,16.50
2022-09-15T03:45:56.767Z,16.50
2022-09-15T03:48:26.722Z,16.40
2022-09-15T03:50:55.459Z,16.40
2022-09-15T03:53:22.033Z,16.40
2022-09-15T03:55:51.057Z,16.40
2022-09-15T03:58:18.391Z,16.30
2022-09-15T04:00:45.811Z,16.40
2022-09-15T04:03:15.625Z,16.30
2022-09-15T04:05:44.370Z,16.30
2022-09-15T04:08:11.938Z,16.30
2022-09-15T04:10:41.169Z,16.30
2022-09-15T04:13:07.865Z,16.20
2022-09-15T04:15:34.469Z,16.20
2022-09-15T04:18:04.782Z,16.10
2022-09-15T04:20:31.847Z,16.10
2022-09-15T04:23:00.761Z,16.20
2022-09-15T04:25:27.814Z,16.10
2022-09-15T04:27:56.729Z,16.20
2022-09-15T04:30:25.713Z,16.20
2022-09-15T04:32:52.387Z,16.20
2022-09-15T04:35:21.867Z,16.20
2022-09-15T04:37:48.398Z,16.20
2022-09-15T04:40:15.080Z,16.20
2022-09-15T04:42:41.662Z,16.20
2022-09-15T04:45:08.439Z,16.20
2022-09-15T04:47:34.956Z,16.20
2022-09-15T04:50:01.725Z,16.20
2022-09-15T04:52:30.475Z,16.20
2022-09-15T04:54:57.268Z,16.30
2022-09-15T04:57:26.290Z,16.30
2022-09-15T04:59:52.875Z,16.20
2022-09-15T05:02:21.629Z,16.30
2022-09-15T05:04:48.694Z,16.20
2022-09-15T05:09:59.094Z,16.20
2022-09-15T05:12:28.018Z,16.20
2022-09-15T05:14:54.536Z,16.20
2022-09-15T05:17:24.077Z,16.20
2022-09-15T05:19:53.187Z,16.20
2022-09-15T05:22:21.846Z,16.20
2022-09-15T05:24:48.370Z,16.20
2022-09-15T05:27:14.888Z,16.20
2022-09-15T05:29:41.404Z,16.20
2022-09-15T05:32:07.937Z,16.20
2022-09-15T05:34:34.504Z,16.10
2022-09-15T05:37:01.576Z,16.10
2022-09-15T05:39:30.317Z,16.10
2022-09-15T05:41:56.920Z,16.10
2022-09-15T05:44:23.414Z,16.10
2022-09-15T05:46:50.078Z,16.10
2022-09-15T05:49:16.723Z,16.10
2022-09-15T05:51:43.431Z,16.10
2022-09-15T05:54:09.938Z,16.10
2022-09-15T05:56:38.667Z,16.00
2022-09-15T05:59:05.198Z,16.00
2022-09-15T06:01:34.005Z,16.10
2022-09-15T06:04:00.689Z,16.10
2022-09-15T06:06:27.983Z,16.10
2022-09-15T06:08:57.981Z,16.10
2022-09-15T06:11:33.606Z,16.10
2022-09-15T06:14:00.868Z,16.10
2022-09-15T06:16:30.088Z,16.20
2022-09-15T06:18:58.761Z,16.20
2022-09-15T06:21:26.691Z,16.30
2022-09-15T06:24:00.306Z,16.30
2022-09-15T06:26:27.631Z,16.30
2022-09-15T06:29:00.545Z,16.40
2022-09-15T06:31:31.444Z,16.40
2022-09-15T06:33:58.568Z,16.40
2022-09-15T06:36:26.296Z,16.50
2022-09-15T06:38:53.280Z,16.50
2022-09-15T06:41:19.959Z,16.50
2022-09-15T06:43:49.337Z,16.50
2022-09-15T06:46:17.209Z,16.50
2022-09-15T06:48:48.024Z,16.50
2022-09-15T06:51:16.923Z,16.50
2022-09-15T06:53:45.875Z,16.50
2022-09-15T06:56:14.445Z,16.60
2022-09-15T06:58:42.195Z,16.60
2022-09-15T07:01:15.489Z,16.70
2022-09-15T07:03:43.324Z,16.80
2022-09-15T07:06:11.794Z,16.70
2022-09-15T07:08:41.636Z,16.80
2022-09-15T07:11:08.895Z,16.80
2022-09-15T07:13:35.908Z,16.90
2022-09-15T07:16:04.002Z,17.00
2022-09-15T07:18:33.077Z,17.00
2022-09-15T07:21:00.526Z,17.10
2022-09-15T07:23:27.308Z,17.20
2022-09-15T07:26:04.246Z,17.50
2022-09-15T07:28:31.084Z,17.90
2022-09-15T07:30:57.696Z,18.60
2022-09-15T07:33:24.236Z,19.50
2022-09-15T07:35:50.902Z,20.20
2022-09-15T07:38:17.432Z,20.80
2022-09-15T07:40:45.906Z,21.20
2022-09-15T07:43:12.422Z,21.60
2022-09-15T07:45:39.732Z,21.90
2022-09-15T07:48:06.440Z,21.90
2022-09-15T07:50:32.970Z,21.70
2022-09-15T07:52:59.494Z,21.80
2022-09-15T07:55:26.177Z,21.70
2022-09-15T07:57:59.324Z,21.40
2022-09-15T08:00:26.582Z,20.70
2022-09-15T08:02:53.294Z,20.10
2022-09-15T08:05:19.906Z,19.70
2022-09-15T08:07:46.449Z,19.30
2022-09-15T08:10:12.982Z,19.10
2022-09-15T08:12:40.737Z,19.00
2022-09-15T08:15:07.477Z,18.80
2022-09-15T08:17:34.377Z,18.70
2022-09-15T08:20:00.986Z,18.60
2022-09-15T08:22:27.902Z,18.60
2022-09-15T08:24:54.438Z,18.70
2022-09-15T08:27:21.161Z,18.70
2022-09-15T08:29:50.221Z,18.70
2022-09-15T08:32:16.890Z,18.70
2022-09-15T08:34:43.403Z,18.70
2022-09-15T08:37:09.961Z,18.80
2022-09-15T08:39:38.865Z,18.70
2022-09-15T08:42:05.743Z,18.70
2022-09-15T08:44:36.156Z,18.60
2022-09-15T08:47:05.787Z,18.40
2022-09-15T08:50:01.505Z,18.40
2022-09-15T08:52:28.123Z,18.30
2022-09-15T08:54:59.999Z,18.40
2022-09-15T08:57:26.620Z,18.40
2022-09-15T08:59:54.452Z,18.40
2022-09-15T09:02:39.109Z,18.40
2022-09-15T09:05:11.153Z,18.40
2022-09-15T09:07:40.450Z,18.40
2022-09-15T09:10:17.280Z,18.50
2022-09-15T09:12:43.849Z,18.50
2022-09-15T09:15:33.299Z,18.60
2022-09-15T09:18:18.104Z,18.50
2022-09-15T09:21:00.102Z,18.50
2022-09-15T09:23:31.029Z,18.50
2022-09-15T09:25:57.879Z,18.50
2022-09-15T09:28:31.780Z,18.40
2022-09-15T09:31:01.350Z,18.40
2022-09-15T09:33:30.311Z,18.30
2022-09-15T09:35:59.090Z,18.20
2022-09-15T09:38:30.377Z,18.10
2022-09-15T09:41:01.899Z,18.10
2022-09-15T09:43:29.480Z,18.20
2022-09-15T09:45:56.411Z,18.10
2022-09-15T09:48:26.868Z,18.20
2022-09-15T09:50:54.883Z,18.30
2022-09-15T09:53:27.560Z,18.30
2022-09-15T09:55:55.218Z,18.30
2022-09-15T09:58:23.878Z,18.40
2022-09-15T10:00:51.182Z,18.50
2022-09-15T10:03:22.650Z,18.40
2022-09-15T10:06:03.994Z,18.40
2022-09-15T10:08:30.794Z,18.40
2022-09-15T10:11:10.169Z,18.40
2022-09-15T10:13:49.380Z,18.40
2022-09-15T10:16:21.630Z,18.50
2022-09-15T10:18:54.209Z,18.60
2022-09-15T10:21:25.109Z,18.60
2022-09-15T10:23:51.999Z,18.70
2022-09-15T10:26:23.070Z,18.70
2022-09-15T10:29:10.183Z,18.70
2022-09-15T10:31:36.869Z,18.60
2022-09-15T10:34:31.892Z,18.60
2022-09-15T10:37:04.298Z,18.70
2022-09-15T10:39:53.848Z,18.70
2022-09-15T10:42:23.199Z,18.80
2022-09-15T10:45:03.232Z,18.90
2022-09-15T10:47:52.895Z,18.90
2022-09-15T10:50:30.419Z,19.00
2022-09-15T10:53:00.038Z,19.10
2022-09-15T10:55:52.827Z,19.20
2022-09-15T10:58:22.080Z,19.20
2022-09-15T11:01:00.231Z,19.20
2022-09-15T11:03:46.533Z,19.10
2022-09-15T11:06:25.736Z,19.10
2022-09-15T11:08:57.690Z,19.00
2022-09-15T11:11:38.698Z,19.00
2022-09-15T11:14:11.163Z,18.90
2022-09-15T11:16:43.945Z,18.90
2022-09-15T11:19:31.627Z,18.90
2022-09-15T11:22:02.209Z,18.90
2022-09-15T11:24:36.608Z,18.90
2022-09-15T11:27:06.183Z,19.00
2022-09-15T11:29:54.563Z,19.00
2022-09-15T11:32:24.471Z,19.00
2022-09-15T11:34:58.753Z,19.10
2022-09-15T11:37:45.852Z,19.10
2022-09-15T11:40:25.333Z,19.10
2022-09-15T11:42:51.902Z,19.00
2022-09-15T11:45:21.449Z,19.00
2022-09-15T11:47:50.685Z,19.00
2022-09-15T11:50:20.582Z,18.90
2022-09-15T11:52:59.129Z,18.80
2022-09-15T11:55:34.885Z,18.80
2022-09-15T11:58:22.071Z,18.70
2022-09-15T12:01:01.532Z,18.70
2022-09-15T12:03:39.618Z,18.70
2022-09-15T12:06:32.595Z,18.60
2022-09-15T12:09:00.949Z,18.60
2022-09-15T12:11:30.278Z,18.50
2022-09-15T12:13:57.459Z,18.40
2022-09-15T12:16:24.130Z,18.40
2022-09-15T12:19:05.437Z,18.50
2022-09-15T12:21:38.853Z,18.50
2022-09-15T12:24:16.421Z,18.40
2022-09-15T12:26:46.345Z,18.40
2022-09-15T12:29:24.461Z,18.50
2022-09-15T12:32:10.948Z,18.50
2022-09-15T12:34:38.433Z,18.50
2022-09-15T12:37:11.278Z,18.60
2022-09-15T12:39:47.523Z,18.60
2022-09-15T12:42:18.583Z,18.70
2022-09-15T12:45:05.138Z,18.70
2022-09-15T12:47:50.554Z,18.70
2022-09-15T12:50:17.051Z,18.80
2022-09-15T12:52:43.704Z,18.90
2022-09-15T12:55:19.050Z,19.00
2022-09-15T12:57:50.202Z,19.00
2022-09-15T13:00:23.214Z,19.00
2022-09-15T13:02:50.933Z,19.00
2022-09-15T13:05:39.007Z,19.00
2022-09-15T13:08:10.323Z,19.00
2022-09-15T13:10:41.316Z,19.10
2022-09-15T13:13:11.576Z,19.00
2022-09-15T13:15:44.876Z,19.00
2022-09-15T13:18:14.955Z,18.90
2022-09-15T13:20:46.248Z,18.90
2022-09-15T13:23:14.114Z,18.80
2022-09-15T13:25:41.980Z,18.80
2022-09-15T13:28:10.361Z,18.70
2022-09-15T13:30:54.981Z,18.80
2022-09-15T13:33:24.351Z,18.80
2022-09-15T13:36:05.977Z,18.80
2022-09-15T13:38:35.836Z,18.90
2022-09-15T13:41:05.786Z,19.00
2022-09-15T13:43:38.704Z,19.10
2022-09-15T13:46:14.894Z,19.20
2022-09-15T13:48:50.831Z,19.20
2022-09-15T13:51:25.239Z,19.20
2022-09-15T13:54:18.796Z,19.10
2022-09-15T13:56:47.297Z,19.20
2022-09-15T13:59:18.899Z,19.20
2022-09-15T14:01:45.850Z,19.20
2022-09-15T14:04:16.970Z,19.10
2022-09-15T14:06:45.548Z,19.10
2022-09-15T14:09:15.003Z,19.00
2022-09-15T14:11:42.639Z,19.00
2022-09-15T14:14:29.850Z,18.90
2022-09-15T14:16:57.008Z,18.90
2022-09-15T14:19:34.283Z,18.90
2022-09-15T14:22:02.061Z,18.90
2022-09-15T14:24:30.019Z,18.90
2022-09-15T14:27:01.228Z,19.00
2022-09-15T14:29:30.917Z,18.90
2022-09-15T14:32:01.382Z,19.00
2022-09-15T14:34:30.408Z,19.00
2022-09-15T14:37:02.667Z,19.00
2022-09-15T14:39:29.194Z,19.00
2022-09-15T14:41:55.852Z,18.90
2022-09-15T14:47:21.013Z,18.90
2022-09-15T14:49:47.938Z,18.90
2022-09-15T14:52:27.905Z,18.80
2022-09-15T14:54:59.367Z,18.80
2022-09-15T14:57:30.767Z,18.80
2022-09-15T15:00:00.873Z,18.70
2022-09-15T15:02:33.815Z,18.70
2022-09-15T15:05:15.676Z,18.70
2022-09-15T15:07:44.826Z,18.70
2022-09-15T15:10:19.371Z,18.70
2022-09-15T15:12:51.782Z,18.70
2022-09-15T15:15:18.729Z,18.60
2022-09-15T15:17:48.861Z,18.60
2022-09-15T15:20:17.730Z,18.60
2022-09-15T15:22:45.530Z,18.50
2022-09-15T15:25:24.577Z,18.50
2022-09-15T15:27:52.491Z,18.50
2022-09-15T15:30:29.719Z,18.50
2022-09-15T15:32:59.961Z,18.40
2022-09-15T15:35:27.374Z,18.40
2022-09-15T15:38:06.207Z,18.40
2022-09-15T15:40:33.237Z,18.40
2022-09-15T15:43:05.715Z,18.30
2022-09-15T15:45:47.053Z,18.40
2022-09-15T15:48:13.643Z,18.40
2022-09-15T15:50:40.153Z,18.40
2022-09-15T15:53:06.889Z,18.40
2022-09-15T15:55:40.587Z,18.40
2022-09-15T15:58:08.596Z,18.30
2022-09-15T16:00:38.136Z,18.30
2022-09-15T16:03:05.310Z,18.30
2022-09-15T16:05:32.220Z,18.30
2022-09-15T16:08:01.214Z,18.30
2022-09-15T16:10:29.941Z,18.30
2022-09-15T16:12:59.069Z,18.30
2022-09-15T16:15:26.851Z,18.30
2022-09-15T16:17:53.393Z,18.30
2022-09-15T16:20:19.979Z,18.30
2022-09-15T16:22:46.550Z,18.20
2022-09-15T16:25:18.210Z,18.20
2022-09-15T16:27:47.281Z,18.30
2022-09-15T16:30:16.226Z,18.20
2022-09-15T16:32:45.013Z,18.20
2022-09-15T16:35:21.084Z,18.20
2022-09-15T16:37:49.755Z,18.20
2022-09-15T16:40:17.829Z,18.20
2022-09-15T16:42:44.920Z,18.10
2022-09-15T16:45:19.719Z,18.10
2022-09-15T16:47:48.645Z,18.10
2022-09-15T16:50:15.171Z,18.10
2022-09-15T16:52:41.715Z,18.10
2022-09-15T16:55:16.857Z,18.10
2022-09-15T16:57:43.421Z,18.10
2022-09-15T17:00:12.849Z,18.00
2022-09-15T17:02:39.438Z,18.10
2022-09-15T17:05:15.153Z,18.00
2022-09-15T17:07:41.695Z,18.00
2022-09-15T17:10:08.293Z,18.00
2022-09-15T17:12:35.311Z,18.00
2022-09-15T17:15:01.824Z,17.90
2022-09-15T17:17:28.329Z,17.90
2022-09-15T17:19:54.959Z,17.80
2022-09-15T17:22:24.017Z,17.80
2022-09-15T17:24:52.703Z,17.80
2022-09-15T17:27:19.202Z,17.80
2022-09-15T17:29:45.856Z,17.80
2022-09-15T17:32:12.343Z,17.70
2022-09-15T17:34:38.958Z,17.60
2022-09-15T17:37:07.960Z,17.70
2022-09-15T17:39:35.315Z,17.60
2022-09-15T17:44:37.695Z,17.60
2022-09-15T17:47:04.452Z,17.60
2022-09-15T17:49:31.082Z,17.60
2022-09-15T17:51:57.613Z,17.50
2022-09-15T17:54:24.130Z,17.50
2022-09-15T17:56:50.694Z,17.50
2022-09-15T17:59:17.206Z,17.50
2022-09-15T18:01:43.806Z,17.40
2022-09-15T18:04:11.145Z,17.40
2022-09-15T18:06:45.284Z,17.40
2022-09-15T18:09:14.600Z,17.40
2022-09-15T18:11:43.620Z,17.40
2022-09-15T18:14:10.644Z,17.40
2022-09-15T18:16:39.384Z,17.30
2022-09-15T18:19:05.899Z,17.30
2022-09-15T18:21:32.554Z,17.20
2022-09-15T18:24:03.816Z,17.30
2022-09-15T18:26:30.322Z,17.30
2022-09-15T18:28:57.017Z,17.20
2022-09-15T18:31:23.726Z,17.30
2022-09-15T18:33:50.332Z,17.20
2022-09-15T18:36:17.004Z,17.20
2022-09-15T18:38:43.614Z,17.20
2022-09-15T18:41:12.980Z,17.20
2022-09-15T18:43:39.509Z,17.20
2022-09-15T18:46:06.832Z,17.10
2022-09-15T18:48:33.370Z,17.10
2022-09-15T18:51:00.028Z,17.10
2022-09-15T18:53:26.587Z,17.10
2022-09-15T18:55:53.183Z,17.10
2022-09-15T18:58:20.005Z,17.10
2022-09-15T19:00:46.681Z,17.00
2022-09-15T19:03:14.027Z,17.00
2022-09-15T19:05:41.027Z,17.00
2022-09-15T19:08:09.091Z,17.00
2022-09-15T19:10:35.930Z,17.00
2022-09-15T19:13:02.491Z,16.90
2022-09-15T19:15:31.299Z,16.90
2022-09-15T19:17:58.388Z,16.90
2022-09-15T19:20:27.388Z,16.90
2022-09-15T19:22:53.946Z,16.90
2022-09-15T19:25:20.747Z,16.80
2022-09-15T19:27:47.862Z,16.80
2022-09-15T19:30:15.056Z,16.80
2022-09-15T19:32:41.827Z,16.80
2022-09-15T19:35:08.627Z,16.70
2022-09-15T19:37:36.892Z,16.70
2022-09-15T19:40:08.276Z,16.70
2022-09-15T19:42:35.341Z,16.70
2022-09-15T19:45:02.098Z,16.60
2022-09-15T19:47:28.629Z,16.60
2022-09-15T19:49:55.222Z,16.60
2022-09-15T19:52:21.778Z,16.60
2022-09-15T19:54:48.396Z,16.60
2022-09-15T19:57:17.119Z,16.60
2022-09-15T19:59:44.650Z,16.60
2022-09-15T20:02:11.869Z,16.60
2022-09-15T20:04:39.326Z,16.60
2022-09-15T20:07:08.256Z,16.60
2022-09-15T20:09:35.055Z,16.50
2022-09-15T20:12:03.303Z,16.50
2022-09-15T20:14:30.593Z,16.50
2022-09-15T20:17:00.323Z,16.50
2022-09-15T20:19:27.961Z,16.50
2022-09-15T20:21:56.986Z,16.40
2022-09-15T20:24:24.033Z,16.40
2022-09-15T20:26:53.379Z,16.40
2022-09-15T20:29:20.337Z,16.40
2022-09-15T20:31:49.196Z,16.40
2022-09-15T20:34:15.785Z,16.30
2022-09-15T20:36:44.566Z,16.30
2022-09-15T20:39:13.216Z,16.30
2022-09-15T20:41:40.707Z,16.30
2022-09-15T20:44:10.242Z,16.30
2022-09-15T20:46:39.279Z,16.20
2022-09-15T20:49:06.148Z,16.20
2022-09-15T20:51:35.218Z,16.20
2022-09-15T20:54:03.919Z,16.20
2022-09-15T20:56:34.733Z,16.20
2022-09-15T20:59:03.453Z,16.30
2022-09-15T21:01:35.829Z,16.20
2022-09-15T21:04:05.267Z,16.20
2022-09-15T21:06:32.378Z,16.20
2022-09-15T21:08:58.929Z,16.20
2022-09-15T21:11:26.980Z,16.30
2022-09-15T21:13:54.174Z,16.20
2022-09-15T21:16:22.101Z,16.20
2022-09-15T21:18:51.317Z,16.20
2022-09-15T21:21:27.928Z,16.20
2022-09-15T21:23:55.796Z,16.20
2022-09-15T21:26:23.464Z,16.20
2022-09-15T21:28:50.369Z,16.20
2022-09-15T21:31:21.075Z,16.10
2022-09-15T21:33:48.124Z,16.20
2022-09-15T21:36:17.308Z,16.10
2022-09-15T21:38:44.255Z,16.10
2022-09-15T21:41:14.864Z,16.10
2022-09-15T21:43:42.110Z,16.10
2022-09-15T21:46:13.342Z,16.10
2022-09-15T21:48:40.257Z,16.00
2022-09-15T21:51:11.139Z,16.00
2022-09-15T21:53:37.788Z,16.00
2022-09-15T21:56:08.425Z,16.00
2022-09-15T21:58:41.738Z,16.00
2022-09-15T22:01:18.741Z,16.00
2022-09-15T22:03:54.933Z,15.90
2022-09-15T22:06:22.584Z,15.90
2022-09-15T22:08:49.165Z,15.90
2022-09-15T22:11:15.724Z,15.90
2022-09-15T22:13:43.496Z,15.90
2022-09-15T22:16:17.615Z,15.80
2022-09-15T22:18:44.515Z,15.90
2022-09-15T22:21:14.815Z,15.80
2022-09-15T22:23:41.922Z,15.80
2022-09-15T22:26:10.118Z,15.80
2022-09-15T22:28:36.889Z,15.70
2022-09-15T22:31:04.687Z,15.70
2022-09-15T22:33:33.706Z,15.70
2022-09-15T22:36:00.251Z,15.70
2022-09-15T22:38:27.920Z,15.70
2022-09-15T22:40:56.905Z,15.60
2022-09-15T22:43:23.493Z,15.60
2022-09-15T22:45:50.341Z,15.60
2022-09-15T22:48:17.191Z,15.60
2022-09-15T22:50:45.055Z,15.50
2022-09-15T22:53:12.825Z,15.50
2022-09-15T22:55:39.671Z,15.50
2022-09-15T22:58:08.976Z,15.50
2022-09-15T23:00:39.733Z,15.50
2022-09-15T23:03:06.583Z,15.40
2022-09-15T23:05:33.924Z,15.40
2022-09-15T23:08:00.619Z,15.40
2022-09-15T23:10:27.224Z,15.40
2022-09-15T23:12:54.187Z,15.30
2022-09-15T23:15:20.717Z,15.30
2022-09-15T23:17:47.359Z,15.30
2022-09-15T23:20:13.905Z,15.30
2022-09-15T23:22:42.857Z,15.30
2022-09-15T23:25:09.383Z,15.30
2022-09-15T23:27:38.091Z,15.20
2022-09-15T23:30:05.094Z,15.20
2022-09-15T23:32:31.683Z,15.10
2022-09-15T23:35:04.067Z,15.10
2022-09-15T23:37:36.650Z,15.10
2022-09-15T23:40:15.389Z,15.00
2022-09-15T23:42:41.956Z,15.00
2022-09-15T23:45:14.347Z,15.00
2022-09-15T23:47:40.908Z,15.00
2022-09-15T23:50:13.395Z,14.90
2022-09-15T23:52:39.942Z,14.90
2022-09-15T23:55:06.631Z,14.90
2022-09-15T23:57:33.160Z,14.80
